Airfield :
LOGIN :

Register | Disclaimer

   EN    FR    IT 

 










Legend :    VFR   Marginal VFR   IFR   Intensive IFR   Very Intensive IFR
Visi :
Ceiling :
>= 8 km
>= 3000ft
5 to 8 km
1000 to 3000 ft
1500m to 5 km
500 to 1000 ft
800 to 1500m
200 to 500 ft
< 800m
< 200 ft
Symbols :   Thunderstorms  Fog  Heavy snow  Heavy precipitations  Wind > 20 kt
SIGMETs :     Misc.  Thunderstorms  Icing  Turbulence  Mountain Waves  Volcanic Ashes






- Airport Elevation : 96 ft
- IATA code : REG


LICR - Reggio Calabria

CURRENT METAR :
  • 281420Z AUTO 20006KT 170V260 9999 BKN034/// 13/08 Q1018

EXPIRED METARs :
  • 281350Z AUTO 22006KT 170V310 9999 BKN032/// 13/08 Q1018
  • 281320Z AUTO 22006KT 170V290 9999 OVC029/// 13/08 Q1018
  • 281250Z AUTO 23006KT 170V300 9999 BKN037/// 13/08 Q1018
  • 281220Z AUTO 22007KT 180V290 9999 BKN032/// 13/08 Q1018
  • 281150Z AUTO VRB05KT 9999 BKN038/// 13/08 Q1018

TAF TAF LICR
Valid from the 28 at 12:00 until the 29 at 12:00 UTC


281100Z 2812/2912 20010KT CAVOK
BECMG 2818/2820 VRB05KT
BECMG 2903/2905 34012KT



MET'MAP, your aeronautical weather chart ! - Copyright ORBIFLY December 2007 - Disclaimer

ORBIFLY MET'MAP TEAM :

Programming & Development : Alexandra Zaïnal
Concept & original design : Baudouin d'Aumeries
Assistance for programming : Marc-Olivier Méhu
Technical & hardware support : Manuel Goepfert

Contact : metmap@orbifly.com




SOURCES & CREDITS :

   NOAA